Time;durP1;ratioP1;P1;durP2;ratioP2;P2;SDS_P1;SDS_P2;PMS_P1;PMS_P2;Temp;Humidity;BMP_temperature;BMP_pressure;BME280_temperature;BME280_humidity;BME280_pressure;Samples;Min_cycle;Max_cycle;Signal;HPM_P1;HPM_P2
2024/02/19 00:01:59;;;;;;;47.42;22.73;;;-1.30;99.90;;;;;;5009575;28;20018;-76
2024/02/19 00:04:25;;;;;;;41.35;22.17;;;-1.20;99.90;;;;;;5075548;28;20360;-77
2024/02/19 00:06:51;;;;;;;42.70;21.67;;;-1.20;99.90;;;;;;5006904;28;20034;-76
2024/02/19 00:09:19;;;;;;;48.20;23.30;;;-1.20;99.90;;;;;;5009706;28;20026;-76
2024/02/19 00:11:46;;;;;;;43.03;20.55;;;-1.20;99.90;;;;;;5010421;28;20542;-76
2024/02/19 00:14:12;;;;;;;42.08;21.30;;;-1.20;99.90;;;;;;5013163;28;20022;-76
2024/02/19 00:16:38;;;;;;;46.05;21.70;;;-1.20;99.90;;;;;;5080945;28;20125;-76
2024/02/19 00:19:05;;;;;;;39.25;20.92;;;-1.20;99.90;;;;;;5012986;28;20483;-76
2024/02/19 00:21:31;;;;;;;45.10;22.70;;;-1.10;99.90;;;;;;5012640;28;20097;-77
2024/02/19 00:23:57;;;;;;;41.35;21.88;;;-1.10;99.90;;;;;;5011094;28;20055;-77
2024/02/19 00:26:23;;;;;;;40.28;21.23;;;-1.10;99.90;;;;;;5080659;28;20033;-77
2024/02/19 00:28:49;;;;;;;41.20;21.27;;;-1.10;99.90;;;;;;5089511;28;20495;-76
2024/02/19 00:31:16;;;;;;;38.05;19.60;;;-1.00;99.90;;;;;;5012453;28;20022;-77
2024/02/19 00:33:42;;;;;;;41.38;20.23;;;-1.10;99.90;;;;;;5012526;28;20050;-77
2024/02/19 00:36:08;;;;;;;43.17;20.67;;;-1.00;99.90;;;;;;5001744;28;20030;-77
2024/02/19 00:38:33;;;;;;;41.20;20.50;;;-1.00;99.90;;;;;;5011518;28;20026;-77
2024/02/19 00:40:59;;;;;;;36.97;20.88;;;-1.00;99.90;;;;;;5012258;28;20028;-76
2024/02/19 00:43:24;;;;;;;37.47;21.27;;;-1.00;99.90;;;;;;5080827;28;20049;-76
2024/02/19 00:45:51;;;;;;;38.38;19.65;;;-1.00;99.90;;;;;;5012028;28;20574;-76
2024/02/19 00:48:19;;;;;;;41.88;20.58;;;-1.00;99.90;;;;;;5012785;28;20045;-77
2024/02/19 00:50:45;;;;;;;42.72;20.17;;;-1.00;99.90;;;;;;5012170;28;20071;-76
2024/02/19 00:53:10;;;;;;;42.35;20.85;;;-1.00;99.90;;;;;;5080420;28;20026;-76
2024/02/19 00:55:36;;;;;;;36.30;18.38;;;-1.00;99.90;;;;;;5012091;28;20018;-76
2024/02/19 00:58:02;;;;;;;37.63;20.70;;;-1.00;99.90;;;;;;5080167;28;20570;-76
2024/02/19 01:00:27;;;;;;;37.13;19.73;;;-1.00;99.90;;;;;;5012108;28;20067;-76
2024/02/19 01:02:53;;;;;;;43.25;20.60;;;-1.00;99.90;;;;;;5012206;28;20555;-76
2024/02/19 01:05:19;;;;;;;39.47;18.98;;;-1.00;99.90;;;;;;5075395;28;20033;-76
2024/02/19 01:07:45;;;;;;;38.72;20.00;;;-1.00;99.90;;;;;;5096528;28;20026;-76
2024/02/19 01:10:11;;;;;;;34.85;19.17;;;-1.00;99.90;;;;;;5011650;28;20041;-77
2024/02/19 01:12:38;;;;;;;41.47;20.17;;;-1.00;99.90;;;;;;5011655;28;20037;-77
2024/02/19 01:15:05;;;;;;;44.63;20.80;;;-1.00;99.90;;;;;;5011765;28;20021;-77
2024/02/19 01:17:30;;;;;;;38.63;20.15;;;-1.00;99.90;;;;;;5079171;28;20079;-77
2024/02/19 01:19:57;;;;;;;43.55;21.75;;;-1.00;99.90;;;;;;5011662;28;20014;-76
2024/02/19 01:22:24;;;;;;;42.85;21.80;;;-1.10;99.90;;;;;;5011676;28;20026;-77
2024/02/19 01:24:50;;;;;;;42.85;23.85;;;-1.10;99.90;;;;;;5011649;28;20026;-77
2024/02/19 01:27:15;;;;;;;40.65;20.50;;;-1.10;99.90;;;;;;5079890;28;20034;-76
2024/02/19 01:29:41;;;;;;;40.58;21.45;;;-1.10;99.90;;;;;;5011739;28;20468;-77
2024/02/19 01:32:06;;;;;;;47.78;21.67;;;-1.20;99.90;;;;;;5079634;28;20416;-76
2024/02/19 01:34:32;;;;;;;50.65;22.85;;;-1.20;99.90;;;;;;5009166;28;20035;-76
2024/02/19 01:36:58;;;;;;;38.42;20.50;;;-1.10;99.90;;;;;;5004365;28;20022;-77
2024/02/19 01:39:24;;;;;;;36.80;19.17;;;-1.20;99.90;;;;;;5078108;28;20080;-76
2024/02/19 01:41:49;;;;;;;45.45;22.67;;;-1.20;99.90;;;;;;5011643;28;20505;-76
2024/02/19 01:44:17;;;;;;;44.15;21.27;;;-1.20;99.90;;;;;;5011748;28;20022;-77
2024/02/19 01:46:44;;;;;;;41.20;21.10;;;-1.20;99.90;;;;;;5079288;28;20074;-76
2024/02/19 01:49:11;;;;;;;46.53;25.45;;;-1.20;99.90;;;;;;5011446;28;20022;-76
2024/02/19 01:51:38;;;;;;;42.42;21.65;;;-1.20;99.90;;;;;;5011761;28;20432;-77
2024/02/19 01:54:04;;;;;;;40.72;20.60;;;-1.30;99.90;;;;;;5011395;28;20040;-76
2024/02/19 01:56:30;;;;;;;39.67;19.85;;;-1.20;99.90;;;;;;5079768;28;20030;-77
2024/02/19 01:58:57;;;;;;;41.67;20.42;;;-1.30;99.90;;;;;;5078628;28;20372;-77
2024/02/19 02:01:24;;;;;;;35.40;19.23;;;-1.30;99.90;;;;;;5095609;28;20064;-77
2024/02/19 02:03:51;;;;;;;48.53;19.70;;;-1.30;99.90;;;;;;5004057;28;20400;-76
2024/02/19 02:06:16;;;;;;;46.30;21.27;;;-1.30;99.90;;;;;;5078914;28;20064;-77
2024/02/19 02:08:42;;;;;;;41.90;20.10;;;-1.30;99.90;;;;;;5010994;28;20042;-76
2024/02/19 02:11:08;;;;;;;41.03;19.73;;;-1.30;99.90;;;;;;5011196;28;20017;-76
2024/02/19 02:13:34;;;;;;;42.00;19.58;;;-1.30;99.90;;;;;;5010818;28;20502;-77
2024/02/19 02:16:02;;;;;;;38.13;17.92;;;-1.30;99.90;;;;;;5079301;28;20551;-77
2024/02/19 02:18:28;;;;;;;34.83;17.02;;;-1.30;99.90;;;;;;5010975;28;20479;-76
2024/02/19 02:20:53;;;;;;;35.40;18.90;;;-1.30;99.90;;;;;;5011149;28;20050;-76
2024/02/19 02:23:21;;;;;;;37.80;19.25;;;-1.30;99.90;;;;;;5010926;28;20435;-76
2024/02/19 02:25:47;;;;;;;38.35;18.92;;;-1.30;99.90;;;;;;5079399;28;20022;-76
2024/02/19 02:28:13;;;;;;;38.40;19.85;;;-1.40;99.90;;;;;;5092486;28;20029;-76
2024/02/19 02:30:39;;;;;;;44.47;20.85;;;-1.30;99.90;;;;;;5011129;28;20483;-77
2024/02/19 02:33:04;;;;;;;35.45;18.58;;;-1.30;99.90;;;;;;5079235;28;20018;-76
2024/02/19 02:35:30;;;;;;;39.05;19.30;;;-1.30;99.90;;;;;;5076488;28;20490;-76
2024/02/19 02:37:56;;;;;;;39.15;21.08;;;-1.30;99.90;;;;;;5077878;28;20037;-77
2024/02/19 02:40:21;;;;;;;42.08;19.95;;;-1.30;99.90;;;;;;5011006;28;20121;-76
2024/02/19 02:42:47;;;;;;;37.30;18.75;;;-1.30;99.90;;;;;;5010293;28;20541;-76
2024/02/19 02:45:12;;;;;;;31.45;17.90;;;-1.20;99.90;;;;;;5077579;28;20856;-76
2024/02/19 02:47:38;;;;;;;39.08;19.95;;;-1.20;99.90;;;;;;5010530;28;20030;-77
2024/02/19 02:50:04;;;;;;;37.75;20.58;;;-1.20;99.90;;;;;;5010672;28;20506;-77
2024/02/19 02:52:30;;;;;;;37.95;19.60;;;-1.20;99.90;;;;;;5005246;28;20027;-78
2024/02/19 02:54:56;;;;;;;44.05;20.10;;;-1.10;99.90;;;;;;5070374;28;20045;-77
2024/02/19 02:57:21;;;;;;;37.28;19.23;;;-1.10;99.90;;;;;;5010431;28;20041;-77
2024/02/19 02:59:47;;;;;;;33.42;19.27;;;-1.10;99.90;;;;;;5078484;28;20387;-77
2024/02/19 03:02:12;;;;;;;37.60;18.90;;;-1.10;99.90;;;;;;5010278;28;20056;-77
2024/02/19 03:04:38;;;;;;;41.40;19.60;;;-1.00;99.90;;;;;;5078182;28;20063;-76
2024/02/19 03:07:04;;;;;;;38.10;18.60;;;-1.00;99.90;;;;;;5077699;28;20568;-76
2024/02/19 03:09:29;;;;;;;38.88;20.00;;;-0.90;99.90;;;;;;5093657;28;20033;-77
2024/02/19 03:11:55;;;;;;;32.95;18.45;;;-0.90;99.90;;;;;;5092257;28;20061;-76
2024/02/19 03:14:21;;;;;;;35.83;18.33;;;-0.90;99.90;;;;;;5078104;28;20475;-76
2024/02/19 03:16:46;;;;;;;38.30;19.33;;;-0.90;99.90;;;;;;5010221;28;20101;-77
2024/02/19 03:19:13;;;;;;;37.20;18.70;;;-0.90;99.90;;;;;;5010367;28;20033;-76
2024/02/19 03:21:42;;;;;;;38.13;17.70;;;-0.90;99.90;;;;;;5078914;28;20026;-77
2024/02/19 03:24:08;;;;;;;35.80;18.33;;;-0.80;99.90;;;;;;5004345;28;20026;-76
2024/02/19 03:26:34;;;;;;;31.23;16.92;;;-0.90;99.90;;;;;;5076995;28;20022;-77
2024/02/19 03:29:00;;;;;;;34.22;17.60;;;-0.80;99.90;;;;;;5077865;28;20018;-76
2024/02/19 03:31:26;;;;;;;37.22;17.33;;;-0.90;99.90;;;;;;5009817;28;20510;-77
2024/02/19 03:33:52;;;;;;;29.85;17.23;;;-0.80;99.90;;;;;;5078526;28;20127;-76
2024/02/19 03:36:18;;;;;;;34.78;17.65;;;-0.80;99.90;;;;;;5009164;28;20502;-77
2024/02/19 03:38:44;;;;;;;35.83;16.73;;;-0.80;99.90;;;;;;5076181;28;20022;-76
2024/02/19 03:41:12;;;;;;;33.90;18.67;;;-0.80;99.90;;;;;;5010087;28;20022;-76
2024/02/19 03:43:37;;;;;;;41.22;20.70;;;-0.80;99.90;;;;;;5009965;28;20472;-77
2024/02/19 03:46:05;;;;;;;36.47;18.40;;;-0.70;99.90;;;;;;5079775;28;20014;-76
2024/02/19 03:48:31;;;;;;;34.28;18.35;;;-0.70;99.90;;;;;;5081502;28;20026;-76
2024/02/19 03:50:57;;;;;;;34.20;16.73;;;-0.60;99.90;;;;;;5013191;28;20026;-76
2024/02/19 03:53:23;;;;;;;33.13;17.52;;;-0.60;99.90;;;;;;5013476;28;20475;-76
2024/02/19 03:55:49;;;;;;;34.13;19.15;;;-0.50;99.90;;;;;;5078627;28;20574;-76
2024/02/19 03:58:15;;;;;;;29.17;16.30;;;-0.50;99.90;;;;;;5080038;28;20022;-76
2024/02/19 04:00:40;;;;;;;32.58;16.58;;;-0.40;99.90;;;;;;5008959;28;20517;-77
2024/02/19 04:03:06;;;;;;;32.60;16.30;;;-0.40;99.90;;;;;;5013097;28;20022;-76
2024/02/19 04:05:32;;;;;;;34.17;17.60;;;-0.30;99.90;;;;;;5013141;28;20507;-77
2024/02/19 04:07:57;;;;;;;29.42;16.20;;;-0.20;99.90;;;;;;5012342;28;20046;-76
2024/02/19 04:10:23;;;;;;;32.67;17.83;;;-0.20;99.90;;;;;;5004845;28;20058;-76
2024/02/19 04:12:49;;;;;;;29.67;15.90;;;-0.10;99.90;;;;;;5007033;28;20026;-76
2024/02/19 04:15:14;;;;;;;34.15;17.20;;;-0.10;99.90;;;;;;5012391;28;20071;-76
2024/02/19 04:17:40;;;;;;;32.75;16.88;;;-0.10;99.90;;;;;;5080802;28;20022;-76
2024/02/19 04:20:06;;;;;;;33.03;19.42;;;-0.10;99.90;;;;;;5012812;28;20028;-77
2024/02/19 04:22:32;;;;;;;25.17;15.05;;;-0.10;99.90;;;;;;5081221;28;20368;-76
2024/02/19 04:24:58;;;;;;;34.83;18.23;;;0.00;99.90;;;;;;5005927;28;20034;-76
2024/02/19 04:27:23;;;;;;;32.58;16.42;;;0.00;99.90;;;;;;5080711;28;20042;-76
2024/02/19 04:29:49;;;;;;;37.33;17.48;;;0.10;99.90;;;;;;5011418;28;20018;-76
2024/02/19 04:32:15;;;;;;;34.50;18.40;;;0.00;99.90;;;;;;5097284;28;20528;-76
2024/02/19 04:34:40;;;;;;;31.88;16.98;;;0.10;99.90;;;;;;5080856;28;20022;-77
2024/02/19 04:37:07;;;;;;;31.70;17.23;;;0.10;99.90;;;;;;5080706;28;20022;-76
2024/02/19 04:39:33;;;;;;;33.63;16.30;;;0.10;99.90;;;;;;5080671;28;20488;-77
2024/02/19 04:42:01;;;;;;;27.85;15.63;;;0.10;99.90;;;;;;5080576;28;20033;-77
2024/02/19 04:44:26;;;;;;;31.05;15.90;;;0.20;99.90;;;;;;5080598;28;20026;-76
2024/02/19 04:46:52;;;;;;;31.58;16.48;;;0.30;99.90;;;;;;5011975;28;20518;-76
2024/02/19 04:49:17;;;;;;;31.55;17.55;;;0.30;99.90;;;;;;5080319;28;20026;-77
2024/02/19 04:51:43;;;;;;;35.72;16.95;;;0.30;99.90;;;;;;5079399;28;20018;-77
2024/02/19 04:54:09;;;;;;;35.72;17.85;;;0.30;99.90;;;;;;5004144;28;20026;-77
2024/02/19 04:56:34;;;;;;;31.23;16.65;;;0.30;99.90;;;;;;5079806;28;20026;-77
2024/02/19 04:59:00;;;;;;;30.30;16.83;;;0.30;99.90;;;;;;5096565;28;20036;-77
2024/02/19 05:01:32;;;;;;;25.63;15.70;;;0.40;99.90;;;;;;5011916;28;20098;-76
2024/02/19 05:03:58;;;;;;;25.75;14.88;;;0.40;99.90;;;;;;5011238;28;20075;-77
2024/02/19 05:06:24;;;;;;;29.27;15.38;;;0.40;99.90;;;;;;5012027;28;20134;-77
2024/02/19 05:08:49;;;;;;;26.23;15.70;;;0.50;99.90;;;;;;5080327;28;20112;-76
2024/02/19 05:11:15;;;;;;;29.60;16.33;;;0.50;99.90;;;;;;5095844;28;20360;-76
2024/02/19 05:13:41;;;;;;;28.38;16.05;;;0.50;99.90;;;;;;5079866;28;20096;-77
2024/02/19 05:16:07;;;;;;;28.40;15.50;;;0.50;99.90;;;;;;5007485;28;20023;-77
2024/02/19 05:18:32;;;;;;;25.63;15.85;;;0.60;99.90;;;;;;5071564;28;20032;-77
2024/02/19 05:21:00;;;;;;;28.98;14.90;;;0.50;99.90;;;;;;5095396;28;20044;-76
2024/02/19 05:23:26;;;;;;;26.75;14.80;;;0.50;99.90;;;;;;5011269;28;20127;-76
2024/02/19 05:25:51;;;;;;;29.75;15.70;;;0.60;99.90;;;;;;5011726;28;20487;-76
2024/02/19 05:28:17;;;;;;;30.73;15.95;;;0.60;99.90;;;;;;5079697;28;20044;-77
2024/02/19 05:30:43;;;;;;;27.80;15.20;;;0.60;99.90;;;;;;5074655;28;20014;-77
2024/02/19 05:33:08;;;;;;;22.52;13.82;;;0.60;99.90;;;;;;5071033;28;20048;-76
2024/02/19 05:35:34;;;;;;;31.98;14.43;;;0.60;99.90;;;;;;5011459;28;20021;-76
2024/02/19 05:37:59;;;;;;;24.42;14.35;;;0.70;99.90;;;;;;5011683;28;20034;-77
2024/02/19 05:40:25;;;;;;;25.48;14.45;;;0.70;99.90;;;;;;5079088;28;20038;-76
2024/02/19 05:42:52;;;;;;;24.00;14.85;;;0.80;99.90;;;;;;5010255;28;20399;-77
2024/02/19 05:45:17;;;;;;;25.33;13.52;;;0.80;99.90;;;;;;4997198;28;20546;-77
2024/02/19 05:47:43;;;;;;;28.75;15.32;;;0.90;99.90;;;;;;5011505;28;20122;-78
2024/02/19 05:50:09;;;;;;;30.42;14.23;;;0.90;99.90;;;;;;5011601;28;20050;-76
2024/02/19 05:52:35;;;;;;;26.52;13.23;;;0.90;99.90;;;;;;5079312;28;20360;-76
2024/02/19 05:55:03;;;;;;;27.08;14.63;;;0.90;99.90;;;;;;4998211;28;20033;-76
2024/02/19 05:57:28;;;;;;;27.60;15.27;;;0.90;99.90;;;;;;5079496;28;20022;-77
2024/02/19 05:59:54;;;;;;;27.23;13.90;;;0.90;99.90;;;;;;5095516;28;20523;-76
2024/02/19 06:02:20;;;;;;;23.15;14.27;;;1.00;99.90;;;;;;5011205;28;20053;-77
2024/02/19 06:04:45;;;;;;;26.60;14.05;;;1.00;99.90;;;;;;5078577;28;20429;-77
2024/02/19 06:07:11;;;;;;;23.40;13.95;;;1.10;99.90;;;;;;5011353;28;20087;-76
2024/02/19 06:09:40;;;;;;;22.70;13.48;;;1.10;99.90;;;;;;5077901;28;20468;-77
2024/02/19 06:12:07;;;;;;;26.63;14.25;;;1.10;99.90;;;;;;5078995;28;20073;-76
2024/02/19 06:14:32;;;;;;;27.17;14.18;;;1.10;99.90;;;;;;5001137;28;20427;-77
2024/02/19 06:16:58;;;;;;;23.75;13.30;;;1.20;99.90;;;;;;5078852;28;20026;-77
2024/02/19 06:19:24;;;;;;;22.92;14.07;;;1.20;99.90;;;;;;5010957;28;20022;-75
2024/02/19 06:21:50;;;;;;;23.40;12.90;;;1.30;99.90;;;;;;5011112;28;20029;-75
2024/02/19 06:24:15;;;;;;;24.40;13.75;;;1.30;99.90;;;;;;5079026;28;20070;-75
2024/02/19 06:26:41;;;;;;;25.77;14.82;;;1.30;99.90;;;;;;5010646;28;20077;-75
2024/02/19 06:29:07;;;;;;;27.25;15.07;;;1.30;99.90;;;;;;5078205;28;20022;-74
2024/02/19 06:31:33;;;;;;;26.73;13.80;;;1.40;99.90;;;;;;5079114;28;20022;-74
2024/02/19 06:33:58;;;;;;;25.85;14.40;;;1.40;99.90;;;;;;5010654;28;20148;-75
2024/02/19 06:36:24;;;;;;;25.83;14.82;;;1.40;99.90;;;;;;4999361;28;20606;-75
2024/02/19 06:38:50;;;;;;;25.27;14.13;;;1.50;99.90;;;;;;5009021;28;20041;-75
2024/02/19 06:41:15;;;;;;;26.48;15.55;;;1.50;99.90;;;;;;5010854;28;20018;-75
2024/02/19 06:43:41;;;;;;;27.20;15.52;;;1.50;99.90;;;;;;5010537;28;20375;-75
2024/02/19 06:46:07;;;;;;;27.02;14.57;;;1.50;99.90;;;;;;5078346;28;20428;-74
2024/02/19 06:48:33;;;;;;;26.90;15.43;;;1.60;99.90;;;;;;5010493;28;20026;-75
2024/02/19 06:50:59;;;;;;;26.52;14.43;;;1.60;99.90;;;;;;5010769;28;20123;-74
2024/02/19 06:53:24;;;;;;;27.20;15.23;;;1.60;99.90;;;;;;5010493;28;20029;-74
2024/02/19 06:55:50;;;;;;;25.20;14.25;;;1.60;99.90;;;;;;5010654;28;20022;-74
2024/02/19 06:58:16;;;;;;;25.75;14.68;;;1.70;99.90;;;;;;4999333;28;20022;-75
2024/02/19 07:00:41;;;;;;;26.77;14.70;;;1.60;99.90;;;;;;5070794;28;20059;-74
2024/02/19 07:03:07;;;;;;;27.13;15.05;;;1.70;99.90;;;;;;5008738;28;20048;-74
2024/02/19 07:05:33;;;;;;;27.25;15.30;;;1.70;99.90;;;;;;5010917;28;20022;-74
2024/02/19 07:07:58;;;;;;;29.95;16.10;;;1.60;99.90;;;;;;5009941;28;20038;-74
2024/02/19 07:10:24;;;;;;;32.80;18.15;;;1.60;99.90;;;;;;5078058;28;20026;-74
2024/02/19 07:12:50;;;;;;;36.40;17.65;;;1.60;99.90;;;;;;5009846;28;20422;-75
2024/02/19 07:15:15;;;;;;;24.30;14.98;;;1.60;99.90;;;;;;5010026;28;20018;-75
2024/02/19 07:17:41;;;;;;;32.17;16.70;;;1.60;99.90;;;;;;5077278;28;20018;-75
2024/02/19 07:20:07;;;;;;;30.15;16.58;;;1.70;99.90;;;;;;5009361;28;20390;-75
2024/02/19 07:22:33;;;;;;;30.65;16.98;;;1.70;99.90;;;;;;5077463;28;20022;-76
2024/02/19 07:24:59;;;;;;;31.88;17.45;;;1.80;99.90;;;;;;4999713;28;20022;-75
2024/02/19 07:27:25;;;;;;;29.38;17.75;;;1.90;99.90;;;;;;4994697;28;20040;-76
2024/02/19 07:29:53;;;;;;;34.35;18.83;;;2.00;99.90;;;;;;5010120;28;20387;-76
2024/02/19 07:32:19;;;;;;;30.90;17.77;;;2.10;99.90;;;;;;5009902;28;20452;-76
2024/02/19 07:34:45;;;;;;;34.38;18.55;;;2.30;99.90;;;;;;5009927;28;20079;-76
2024/02/19 07:37:11;;;;;;;35.88;20.85;;;2.40;99.90;;;;;;5009517;28;20022;-75
2024/02/19 07:39:41;;;;;;;51.17;23.85;;;2.60;99.90;;;;;;5077609;28;20099;-75
2024/02/19 07:42:09;;;;;;;61.90;25.67;;;2.70;99.90;;;;;;5077393;28;20028;-75
2024/02/19 07:44:35;;;;;;;36.92;17.80;;;2.80;99.90;;;;;;5077698;28;20026;-76
2024/02/19 07:47:04;;;;;;;25.85;15.00;;;2.90;99.90;;;;;;5009281;28;20041;-75
2024/02/19 07:49:30;;;;;;;28.45;14.45;;;3.00;99.90;;;;;;5008921;28;20034;-76
2024/02/19 07:51:56;;;;;;;26.48;15.07;;;3.10;99.90;;;;;;5009690;28;20502;-75
2024/02/19 07:54:21;;;;;;;36.20;18.23;;;3.10;99.90;;;;;;5009812;28;20090;-76
2024/02/19 07:56:47;;;;;;;26.42;15.43;;;3.20;99.90;;;;;;5009479;28;20078;-76
2024/02/19 07:59:12;;;;;;;28.17;15.20;;;3.30;99.90;;;;;;5009850;28;20025;-75
2024/02/19 08:01:38;;;;;;;26.10;15.30;;;3.30;99.90;;;;;;5009564;28;20022;-76
2024/02/19 08:04:04;;;;;;;28.02;15.45;;;3.40;99.90;;;;;;5074344;28;20026;-75
2024/02/19 08:06:29;;;;;;;30.67;15.38;;;3.40;99.90;;;;;;5008165;28;20110;-76
2024/02/19 08:08:55;;;;;;;32.63;16.65;;;3.50;99.90;;;;;;5077198;28;20028;-76
2024/02/19 08:11:21;;;;;;;31.60;16.27;;;3.60;99.90;;;;;;5077023;28;20143;-76
2024/02/19 08:13:47;;;;;;;27.05;15.93;;;3.60;99.90;;;;;;5094107;28;20034;-75
2024/02/19 08:16:13;;;;;;;35.63;18.80;;;3.70;99.90;;;;;;5004378;28;20018;-75
2024/02/19 08:18:40;;;;;;;27.50;15.95;;;3.80;99.90;;;;;;5069779;28;20404;-76
2024/02/19 08:21:06;;;;;;;30.27;17.52;;;3.90;99.90;;;;;;5076954;28;20029;-75
2024/02/19 08:23:31;;;;;;;38.20;22.30;;;3.90;99.90;;;;;;5077161;28;20018;-76
2024/02/19 08:25:58;;;;;;;33.13;17.85;;;3.90;99.90;;;;;;5009154;28;20395;-76
2024/02/19 08:28:23;;;;;;;30.65;17.67;;;3.90;99.90;;;;;;5009279;28;20034;-75
2024/02/19 08:30:49;;;;;;;31.27;16.63;;;3.90;99.90;;;;;;5009020;28;20025;-76
2024/02/19 08:33:15;;;;;;;29.38;16.30;;;3.90;99.90;;;;;;5011289;28;20509;-76
2024/02/19 08:35:41;;;;;;;29.25;17.45;;;3.90;99.90;;;;;;5081024;28;20014;-76
2024/02/19 08:38:06;;;;;;;33.47;18.08;;;3.90;99.90;;;;;;5012524;28;20067;-75
2024/02/19 08:40:32;;;;;;;32.63;16.83;;;4.00;99.90;;;;;;5012588;28;20062;-76
2024/02/19 08:42:58;;;;;;;35.00;17.70;;;4.00;99.90;;;;;;5080563;28;20083;-75
2024/02/19 08:45:23;;;;;;;32.88;18.77;;;4.00;99.90;;;;;;5012397;28;20024;-75
2024/02/19 08:47:49;;;;;;;33.20;18.88;;;4.10;99.90;;;;;;5012321;28;20049;-76
2024/02/19 08:50:15;;;;;;;36.33;21.23;;;4.10;99.90;;;;;;5080183;28;20059;-76
2024/02/19 08:52:40;;;;;;;38.70;18.92;;;4.00;99.90;;;;;;5012503;28;20022;-74
2024/02/19 08:55:06;;;;;;;37.65;20.70;;;4.00;99.90;;;;;;5080368;28;20083;-76
2024/02/19 08:57:32;;;;;;;40.33;21.30;;;4.00;99.90;;;;;;5012512;28;20037;-76
2024/02/19 08:59:57;;;;;;;34.63;20.00;;;4.00;99.90;;;;;;5012049;28;20014;-75
2024/02/19 09:02:24;;;;;;;42.97;22.88;;;4.00;99.90;;;;;;5012465;28;20472;-75
2024/02/19 09:04:49;;;;;;;37.17;19.88;;;4.10;99.90;;;;;;5005724;28;20026;-75
2024/02/19 09:07:15;;;;;;;36.85;19.42;;;4.10;99.90;;;;;;5004290;28;20034;-75
2024/02/19 09:09:44;;;;;;;35.03;18.92;;;4.10;99.90;;;;;;5079705;28;20057;-75
2024/02/19 09:12:10;;;;;;;34.88;19.27;;;4.10;99.90;;;;;;5012121;28;20045;-76
2024/02/19 09:14:37;;;;;;;34.22;18.00;;;4.20;99.90;;;;;;5011869;28;20021;-75
2024/02/19 09:17:02;;;;;;;35.08;19.15;;;4.20;99.90;;;;;;5011869;28;20026;-76
2024/02/19 09:19:28;;;;;;;37.42;19.95;;;4.20;99.90;;;;;;5079912;28;20044;-74
2024/02/19 09:21:54;;;;;;;38.20;20.42;;;4.30;99.90;;;;;;5079862;28;20018;-76
2024/02/19 09:24:19;;;;;;;37.40;20.10;;;4.30;99.90;;;;;;5079592;28;20116;-76
2024/02/19 09:26:45;;;;;;;35.97;21.75;;;4.30;99.90;;;;;;5011735;28;20095;-76
2024/02/19 09:29:11;;;;;;;66.57;31.13;;;4.40;99.90;;;;;;5079418;28;20018;-76
2024/02/19 09:31:36;;;;;;;97.40;44.65;;;4.40;99.90;;;;;;5079784;28;20426;-75
2024/02/19 09:34:02;;;;;;;110.72;53.38;;;4.40;99.90;;;;;;5079597;28;20037;-75
2024/02/19 09:36:28;;;;;;;47.83;28.33;;;4.50;99.90;;;;;;5079823;28;20022;-76
2024/02/19 09:38:54;;;;;;;65.32;31.38;;;4.60;99.90;;;;;;5010985;28;20438;-76
2024/02/19 09:41:20;;;;;;;57.55;29.25;;;4.60;99.90;;;;;;5079805;28;20425;-76
2024/02/19 09:43:46;;;;;;;49.05;25.75;;;4.60;99.90;;;;;;5011074;28;20021;-75
2024/02/19 09:46:16;;;;;;;44.50;21.95;;;4.60;99.90;;;;;;5011587;28;20030;-75
2024/02/19 09:48:49;;;;;;;37.92;20.20;;;4.70;99.90;;;;;;5079373;28;20022;-75
2024/02/19 09:51:21;;;;;;;34.13;19.33;;;4.80;99.90;;;;;;5079422;28;20106;-76
2024/02/19 09:53:51;;;;;;;37.27;18.67;;;4.80;99.90;;;;;;5011365;28;20037;-76
2024/02/19 09:56:22;;;;;;;37.83;20.38;;;4.90;99.90;;;;;;5078991;28;20117;-75
2024/02/19 09:58:51;;;;;;;41.15;21.90;;;5.00;99.90;;;;;;5080618;28;20420;-75
2024/02/19 10:01:19;;;;;;;35.08;21.30;;;5.10;99.90;;;;;;5010785;28;20086;-75
2024/02/19 10:03:46;;;;;;;81.43;38.42;;;5.20;99.90;;;;;;5010166;28;20026;-76
2024/02/19 10:06:11;;;;;;;121.57;51.08;;;5.30;99.90;;;;;;5078858;28;20025;-75
2024/02/19 10:08:37;;;;;;;167.38;64.20;;;5.40;99.90;;;;;;5078877;28;20026;-75
2024/02/19 10:11:10;;;;;;;177.60;73.70;;;5.50;99.90;;;;;;5078608;28;20074;-76
2024/02/19 10:13:41;;;;;;;177.68;73.93;;;5.60;99.90;;;;;;5011500;28;20022;-76
2024/02/19 10:16:09;;;;;;;113.03;46.58;;;5.70;99.90;;;;;;5078989;28;20395;-76
2024/02/19 10:18:35;;;;;;;138.52;57.58;;;5.90;99.90;;;;;;5011224;28;20479;-77
2024/02/19 10:21:01;;;;;;;216.88;85.55;;;6.00;99.90;;;;;;5078286;28;20056;-75
2024/02/19 10:23:27;;;;;;;75.70;34.90;;;6.30;99.90;;;;;;5078590;28;20071;-76
2024/02/19 10:25:54;;;;;;;230.23;92.28;;;6.40;99.90;;;;;;5010688;28;20495;-75
2024/02/19 10:28:21;;;;;;;89.90;39.33;;;6.50;99.90;;;;;;5078717;28;20026;-75
2024/02/19 10:30:48;;;;;;;99.32;42.35;;;6.60;99.90;;;;;;5092509;28;20368;-76
2024/02/19 10:33:14;;;;;;;46.28;26.33;;;6.80;99.90;;;;;;5079021;28;20023;-75
2024/02/19 10:35:40;;;;;;;74.28;34.80;;;6.90;99.90;;;;;;5078395;28;20063;-75
2024/02/19 10:38:07;;;;;;;88.70;42.33;;;6.90;99.90;;;;;;5010689;28;20022;-76
2024/02/19 10:40:33;;;;;;;107.80;53.05;;;7.00;99.90;;;;;;5010612;28;20116;-76
2024/02/19 10:43:00;;;;;;;94.82;48.63;;;6.90;99.90;;;;;;5010732;28;20033;-75
2024/02/19 10:45:26;;;;;;;56.78;31.40;;;6.90;99.90;;;;;;5078217;28;20019;-76
2024/02/19 10:47:53;;;;;;;53.53;32.22;;;6.80;99.90;;;;;;5010609;28;20067;-75
2024/02/19 10:50:20;;;;;;;43.88;26.85;;;6.80;99.90;;;;;;5077780;28;20461;-75
2024/02/19 10:52:46;;;;;;;30.13;18.98;;;6.80;99.90;;;;;;5085706;28;20022;-76
2024/02/19 10:55:12;;;;;;;39.63;20.42;;;6.80;99.90;;;;;;5077268;28;20018;-76
2024/02/19 10:57:51;;;;;;;27.38;18.23;;;6.80;99.90;;;;;;5010568;28;20029;-76
2024/02/19 11:00:18;;;;;;;25.95;15.70;;;6.80;99.90;;;;;;5059288;28;20030;-77
2024/02/19 11:02:44;;;;;;;23.95;17.13;;;6.80;99.90;;;;;;5072172;28;20026;-75
2024/02/19 11:05:11;;;;;;;26.83;16.77;;;6.80;99.90;;;;;;4998882;28;20026;-76
2024/02/19 11:07:38;;;;;;;25.50;15.88;;;6.80;99.90;;;;;;5009700;28;20458;-76
2024/02/19 11:10:05;;;;;;;24.48;15.68;;;6.80;99.90;;;;;;5077921;28;20017;-76
2024/02/19 11:12:32;;;;;;;27.70;16.02;;;6.90;99.90;;;;;;5010193;28;20026;-76
2024/02/19 11:14:57;;;;;;;24.17;16.23;;;6.90;99.90;;;;;;5010400;28;20025;-77
2024/02/19 11:17:23;;;;;;;25.23;15.52;;;7.00;99.90;;;;;;5009911;28;20029;-76
2024/02/19 11:19:51;;;;;;;25.80;15.20;;;7.00;99.90;;;;;;5077862;28;20527;-76
2024/02/19 11:22:22;;;;;;;28.00;15.23;;;7.00;99.90;;;;;;5075843;28;20091;-76
2024/02/19 11:24:49;;;;;;;24.27;14.77;;;7.10;99.90;;;;;;5067742;28;20383;-76
2024/02/19 11:27:15;;;;;;;24.83;15.07;;;7.10;99.90;;;;;;5009849;28;20114;-76
2024/02/19 11:29:40;;;;;;;20.00;13.93;;;7.10;99.90;;;;;;5010174;28;20487;-76
2024/02/19 11:32:07;;;;;;;17.50;11.77;;;7.10;99.90;;;;;;4997017;28;20060;-76
2024/02/19 11:34:33;;;;;;;20.73;13.85;;;7.10;99.90;;;;;;5010124;28;20022;-76
2024/02/19 11:37:08;;;;;;;19.45;11.48;;;7.20;99.90;;;;;;5009831;28;20515;-75
2024/02/19 11:39:34;;;;;;;19.40;12.80;;;7.10;99.90;;;;;;5077561;28;20123;-76
2024/02/19 11:42:02;;;;;;;17.65;12.45;;;7.10;99.90;;;;;;5077584;28;20600;-75
2024/02/19 11:44:29;;;;;;;17.70;10.55;;;7.20;99.90;;;;;;5009847;28;20022;-75
2024/02/19 11:46:56;;;;;;;18.80;12.55;;;7.20;99.90;;;;;;5009357;28;20415;-76
2024/02/19 11:49:23;;;;;;;19.77;12.43;;;7.20;99.90;;;;;;5077746;28;20037;-76
2024/02/19 11:51:49;;;;;;;16.55;11.85;;;7.20;99.90;;;;;;5074824;28;20038;-75
2024/02/19 11:54:15;;;;;;;17.02;11.85;;;7.20;99.90;;;;;;5009654;28;20022;-75
2024/02/19 11:56:44;;;;;;;15.93;10.75;;;7.20;99.90;;;;;;5009563;28;20033;-76
2024/02/19 11:59:10;;;;;;;17.92;11.13;;;7.20;99.90;;;;;;5077603;28;20037;-76
2024/02/19 12:01:37;;;;;;;16.58;10.90;;;7.10;99.90;;;;;;5076978;28;20026;-75
2024/02/19 12:04:03;;;;;;;17.80;10.98;;;7.10;99.90;;;;;;5077258;28;20036;-76
2024/02/19 12:06:35;;;;;;;17.15;10.63;;;7.00;99.90;;;;;;4996191;28;20026;-76
2024/02/19 12:09:00;;;;;;;20.27;11.25;;;6.90;99.90;;;;;;5012841;28;20130;-77
2024/02/19 12:11:27;;;;;;;15.10;10.30;;;6.90;99.90;;;;;;5013017;28;20476;-76
2024/02/19 12:13:52;;;;;;;13.93;10.05;;;6.90;99.90;;;;;;5013188;28;20057;-77
2024/02/19 12:16:20;;;;;;;18.10;10.82;;;6.90;99.90;;;;;;5081459;28;20435;-76
2024/02/19 12:18:47;;;;;;;13.20;9.73;;;6.90;99.90;;;;;;5012870;28;20048;-77
2024/02/19 12:21:14;;;;;;;12.85;9.30;;;6.90;99.90;;;;;;5012397;28;20072;-76
2024/02/19 12:23:41;;;;;;;14.93;10.07;;;6.80;99.90;;;;;;5012964;28;20353;-75
2024/02/19 12:26:07;;;;;;;13.60;9.38;;;6.80;99.90;;;;;;5012688;28;20079;-77
2024/02/19 12:28:33;;;;;;;16.50;10.57;;;6.80;99.90;;;;;;5097330;28;20388;-76